Time;durP1;ratioP1;P1;durP2;ratioP2;P2;SDS_P1;SDS_P2;PMS_P1;PMS_P2;Temp;Humidity;BMP_temperature;BMP_pressure;BME280_temperature;BME280_humidity;BME280_pressure;Samples;Min_cycle;Max_cycle;Signal;HPM_P1;HPM_P2
2023/09/23 00:03:09;;;;;;;85.35;37.28;;;;;;;;;;10489858;28;20044;-84
2023/09/23 00:08:10;;;;;;;32.15;19.90;;;;;;;;;;10489022;28;20127;-84
2023/09/23 00:13:11;;;;;;;55.13;24.27;;;;;;;;;;10489568;28;20545;-86
2023/09/23 00:18:17;;;;;;;44.72;24.65;;;;;;;;;;10470538;28;20055;-85
2023/09/23 00:23:20;;;;;;;;;;;;;;;;;;10489718;28;20054;-84
2023/09/23 00:28:25;;;;;;;38.78;19.85;;;;;;;;;;10488523;28;20309;-85
2023/09/23 00:33:26;;;;;;;32.70;19.80;;;;;;;;;;10487043;28;20124;-85
2023/09/23 00:38:27;;;;;;;37.97;20.10;;;;;;;;;;10489105;28;20803;-84
2023/09/23 00:43:28;;;;;;;18.67;13.10;;;;;;;;;;10488369;28;20032;-84
2023/09/23 00:48:33;;;;;;;39.03;18.88;;;;;;;;;;10487465;28;20409;-85
2023/09/23 00:53:36;;;;;;;46.65;20.77;;;;;;;;;;10487097;28;20454;-85
2023/09/23 00:58:37;;;;;;;27.88;17.00;;;;;;;;;;10486763;28;20110;-84
2023/09/23 01:03:38;;;;;;;30.33;17.27;;;;;;;;;;10487714;28;20052;-84
2023/09/23 01:08:42;;;;;;;19.50;13.20;;;;;;;;;;10487949;28;20124;-85
2023/09/23 01:13:44;;;;;;;39.65;19.35;;;;;;;;;;10469107;28;20040;-83
2023/09/23 01:18:48;;;;;;;26.55;16.23;;;;;;;;;;10469227;28;20042;-83
2023/09/23 01:23:50;;;;;;;37.35;17.60;;;;;;;;;;10486425;28;20140;-84
2023/09/23 01:28:51;;;;;;;18.92;13.32;;;;;;;;;;10469070;28;20059;-84
2023/09/23 01:33:52;;;;;;;26.55;13.98;;;;;;;;;;10486483;28;20123;-83
2023/09/23 01:38:53;;;;;;;23.40;13.43;;;;;;;;;;10486346;28;20045;-82
2023/09/23 01:43:55;;;;;;;25.48;14.13;;;;;;;;;;10485743;28;20036;-84
2023/09/23 01:48:57;;;;;;;24.27;13.30;;;;;;;;;;10485914;28;20542;-84
2023/09/23 01:53:59;;;;;;;34.90;16.67;;;;;;;;;;10486445;28;20039;-83
2023/09/23 01:59:00;;;;;;;24.27;12.85;;;;;;;;;;10484302;28;20036;-87
2023/09/23 02:04:01;;;;;;;18.33;10.63;;;;;;;;;;10484802;28;20048;-84
2023/09/23 02:09:02;;;;;;;17.15;9.63;;;;;;;;;;10484909;28;20716;-83
2023/09/23 02:14:07;;;;;;;16.35;10.90;;;;;;;;;;10484830;28;20034;-84
2023/09/23 02:19:08;;;;;;;15.32;9.13;;;;;;;;;;10484535;28;20028;-83
2023/09/23 02:24:09;;;;;;;14.43;8.80;;;;;;;;;;10484439;28;20039;-85
2023/09/23 02:29:10;;;;;;;23.80;10.98;;;;;;;;;;10466354;28;20468;-86
2023/09/23 02:34:11;;;;;;;28.98;12.85;;;;;;;;;;10485349;28;20123;-85
2023/09/23 02:39:15;;;;;;;23.13;11.98;;;;;;;;;;10483767;28;20036;-86
2023/09/23 02:44:22;;;;;;;20.20;10.38;;;;;;;;;;10484835;28;20431;-83
2023/09/23 02:49:23;;;;;;;18.35;8.38;;;;;;;;;;10465857;28;20049;-83
2023/09/23 02:54:26;;;;;;;17.30;7.05;;;;;;;;;;10485127;28;20472;-84
2023/09/23 02:59:31;;;;;;;12.07;5.82;;;;;;;;;;10465718;28;20036;-84
2023/09/23 03:04:33;;;;;;;17.85;7.75;;;;;;;;;;10483007;28;20533;-83
2023/09/23 03:09:34;;;;;;;11.05;5.65;;;;;;;;;;10483988;28;20045;-84
2023/09/23 03:14:42;;;;;;;8.57;4.25;;;;;;;;;;10484193;28;20032;-83
2023/09/23 03:19:43;;;;;;;12.00;4.63;;;;;;;;;;10474122;28;20033;-85
2023/09/23 03:24:48;;;;;;;7.70;4.20;;;;;;;;;;10489988;28;20074;-83
2023/09/23 03:29:49;;;;;;;7.90;4.28;;;;;;;;;;10491219;28;20039;-85
2023/09/23 03:34:50;;;;;;;5.50;3.13;;;;;;;;;;10490035;28;20056;-83
2023/09/23 03:39:51;;;;;;;7.18;3.00;;;;;;;;;;10490569;28;20050;-86
2023/09/23 03:44:52;;;;;;;11.25;4.80;;;;;;;;;;10472939;28;20563;-84
2023/09/23 03:49:53;;;;;;;12.10;4.80;;;;;;;;;;10488978;28;20381;-85
2023/09/23 03:54:54;;;;;;;8.70;4.30;;;;;;;;;;10490343;28;20049;-86
2023/09/23 03:59:55;;;;;;;4.45;3.30;;;;;;;;;;10489307;28;20082;-83
2023/09/23 04:04:56;;;;;;;4.25;3.33;;;;;;;;;;10489713;28;20045;-84
2023/09/23 04:09:58;;;;;;;4.43;3.53;;;;;;;;;;10490397;28;20024;-84
2023/09/23 04:14:59;;;;;;;6.43;3.25;;;;;;;;;;10488727;28;20058;-87
2023/09/23 04:20:09;;;;;;;6.05;3.88;;;;;;;;;;10490010;28;20597;-83
2023/09/23 04:25:13;;;;;;;7.32;3.50;;;;;;;;;;10486522;28;20044;-83
2023/09/23 04:30:15;;;;;;;9.63;4.90;;;;;;;;;;10467406;28;20036;-83
2023/09/23 04:35:16;;;;;;;8.32;4.95;;;;;;;;;;10487369;28;20047;-82
2023/09/23 04:40:18;;;;;;;14.88;8.57;;;;;;;;;;10485099;28;20028;-84
2023/09/23 04:45:20;;;;;;;24.92;11.63;;;;;;;;;;10484629;28;20063;-79
2023/09/23 04:50:23;;;;;;;18.50;10.27;;;;;;;;;;10487717;28;20043;-82
2023/09/23 04:55:24;;;;;;;32.80;14.50;;;;;;;;;;10469676;28;20637;-80
2023/09/23 05:00:26;;;;;;;25.77;12.02;;;;;;;;;;10485433;28;20035;-81
2023/09/23 05:05:27;;;;;;;23.08;11.50;;;;;;;;;;10485940;28;20499;-79
2023/09/23 05:10:28;;;;;;;19.17;11.35;;;;;;;;;;10486108;28;20112;-83
2023/09/23 05:15:31;;;;;;;16.77;10.20;;;;;;;;;;10486950;28;20067;-83
2023/09/23 05:20:33;;;;;;;19.27;10.75;;;;;;;;;;10483579;28;20040;-84
2023/09/23 05:25:35;;;;;;;23.77;12.35;;;;;;;;;;10483019;28;20043;-82
2023/09/23 05:30:37;;;;;;;14.13;8.73;;;;;;;;;;10468728;28;20107;-84
2023/09/23 05:35:38;;;;;;;8.80;5.88;;;;;;;;;;10473970;28;20752;-82
2023/09/23 05:40:39;;;;;;;7.82;4.63;;;;;;;;;;10486009;28;20031;-83
2023/09/23 05:45:40;;;;;;;4.95;3.63;;;;;;;;;;10486937;28;20052;-83
2023/09/23 05:50:41;;;;;;;5.28;4.18;;;;;;;;;;10483112;28;20032;-82
2023/09/23 05:55:43;;;;;;;13.95;7.00;;;;;;;;;;10477321;28;20107;-83
2023/09/23 06:00:46;;;;;;;11.30;6.18;;;;;;;;;;10484765;28;20063;-83
2023/09/23 06:05:48;;;;;;;9.02;6.15;;;;;;;;;;10485863;28;20045;-83
2023/09/23 06:10:50;;;;;;;10.65;6.20;;;;;;;;;;10465350;28;20178;-84
2023/09/23 06:15:52;;;;;;;7.90;5.30;;;;;;;;;;10483112;28;20082;-83
2023/09/23 06:20:59;;;;;;;6.30;4.65;;;;;;;;;;10479793;28;20036;-85
2023/09/23 06:26:02;;;;;;;8.25;4.65;;;;;;;;;;10481304;28;20036;-83
2023/09/23 06:31:03;;;;;;;10.38;6.13;;;;;;;;;;10483801;28;20039;-84
2023/09/23 06:36:05;;;;;;;8.18;5.43;;;;;;;;;;10483153;28;20031;-84
2023/09/23 06:41:06;;;;;;;9.90;5.90;;;;;;;;;;10484261;28;20423;-84
2023/09/23 06:46:07;;;;;;;10.55;6.55;;;;;;;;;;10459693;28;20052;-84
2023/09/23 06:51:08;;;;;;;10.85;6.38;;;;;;;;;;10481989;28;20032;-85
2023/09/23 06:56:09;;;;;;;14.40;7.93;;;;;;;;;;10483661;28;20115;-85
2023/09/23 07:01:10;;;;;;;10.80;6.47;;;;;;;;;;10482928;28;20412;-85
2023/09/23 07:06:11;;;;;;;7.50;5.70;;;;;;;;;;10484182;28;20033;-88
2023/09/23 07:11:13;;;;;;;7.50;5.70;;;;;;;;;;10484332;28;20063;-84
2023/09/23 07:16:14;;;;;;;10.65;6.70;;;;;;;;;;10475252;28;20032;-86
2023/09/23 07:21:15;;;;;;;8.60;6.07;;;;;;;;;;10483772;28;20039;-86
2023/09/23 07:26:23;;;;;;;11.38;7.25;;;;;;;;;;10484459;28;20041;-87
2023/09/23 07:31:24;;;;;;;11.45;7.35;;;;;;;;;;10464866;28;20029;-85
2023/09/23 07:36:35;;;;;;;12.20;7.00;;;;;;;;;;10482371;28;20036;-84
2023/09/23 07:41:36;;;;;;;8.88;6.18;;;;;;;;;;10462020;28;20040;-81
2023/09/23 07:46:37;;;;;;;11.18;6.35;;;;;;;;;;10468909;28;20036;-83
2023/09/23 07:51:39;;;;;;;8.85;6.28;;;;;;;;;;10482443;28;20143;-86
2023/09/23 07:56:40;;;;;;;8.57;5.65;;;;;;;;;;10464923;28;20020;-85
2023/09/23 08:01:41;;;;;;;9.48;5.97;;;;;;;;;;10481573;28;20040;-89
2023/09/23 08:06:43;;;;;;;6.88;4.85;;;;;;;;;;10487975;28;20036;-85
2023/09/23 08:11:44;;;;;;;6.50;4.95;;;;;;;;;;10488587;28;20762;-85
2023/09/23 08:16:45;;;;;;;7.55;5.50;;;;;;;;;;10484459;28;20084;-85
2023/09/23 08:21:46;;;;;;;5.68;4.63;;;;;;;;;;10468950;28;20036;-83
2023/09/23 08:26:47;;;;;;;5.55;4.38;;;;;;;;;;10487195;28;20051;-85
2023/09/23 08:31:49;;;;;;;5.28;3.85;;;;;;;;;;10488335;28;20319;-84
2023/09/23 08:36:50;;;;;;;4.93;3.58;;;;;;;;;;10480994;28;20028;-86
2023/09/23 08:41:55;;;;;;;4.45;3.40;;;;;;;;;;10485431;28;20472;-84
2023/09/23 08:46:56;;;;;;;4.07;3.67;;;;;;;;;;10482500;28;20044;-87
2023/09/23 08:51:58;;;;;;;5.20;4.32;;;;;;;;;;10465269;28;20613;-87
2023/09/23 08:56:59;;;;;;;5.65;4.32;;;;;;;;;;10472340;28;20540;-87
2023/09/23 09:02:02;;;;;;;7.55;4.93;;;;;;;;;;10478707;28;20504;-86
2023/09/23 09:07:03;;;;;;;4.90;3.75;;;;;;;;;;10478506;28;20040;-87
2023/09/23 09:12:05;;;;;;;6.10;4.75;;;;;;;;;;10476565;28;20383;-87
2023/09/23 09:17:12;;;;;;;7.43;4.90;;;;;;;;;;10476195;28;20341;-87
2023/09/23 09:22:15;;;;;;;5.55;4.35;;;;;;;;;;10469137;28;20036;-90
2023/09/23 09:27:16;;;;;;;14.05;9.43;;;;;;;;;;10465961;28;20107;-89
2023/09/23 09:32:20;;;;;;;19.90;9.75;;;;;;;;;;10467264;28;20032;-90
2023/09/23 09:37:23;;;;;;;21.30;9.98;;;;;;;;;;10466735;28;20487;-84
2023/09/23 09:42:33;;;;;;;16.20;9.43;;;;;;;;;;10483238;28;20040;-85
2023/09/23 09:47:34;;;;;;;11.52;8.00;;;;;;;;;;10485273;28;20039;-87
2023/09/23 09:52:36;;;;;;;12.20;7.80;;;;;;;;;;10484137;28;20031;-89
2023/09/23 09:57:37;;;;;;;11.35;7.97;;;;;;;;;;10467980;28;20067;-83
2023/09/23 10:02:43;;;;;;;8.40;5.60;;;;;;;;;;10486059;28;20097;-91
2023/09/23 10:08:15;;;;;;;5.07;3.80;;;;;;;;;;10462551;28;20051;-91
2023/09/23 10:13:23;;;;;;;3.78;3.30;;;;;;;;;;10483017;28;20591;-92
2023/09/23 10:18:37;;;;;;;6.45;4.15;;;;;;;;;;10468312;28;20815;-90
2023/09/23 10:23:39;;;;;;;4.22;3.53;;;;;;;;;;10453568;28;20056;-87
2023/09/23 10:28:45;;;;;;;3.53;3.00;;;;;;;;;;10453505;28;20090;-88
2023/09/23 10:33:46;;;;;;;3.40;3.03;;;;;;;;;;10464186;28;20484;-84
2023/09/23 10:38:47;;;;;;;5.20;3.58;;;;;;;;;;10463951;28;20056;-88
2023/09/23 10:43:55;;;;;;;3.90;2.90;;;;;;;;;;10455794;28;20392;-85
2023/09/23 10:48:59;;;;;;;4.28;3.50;;;;;;;;;;10475261;28;20037;-89
2023/09/23 10:54:00;;;;;;;5.15;4.07;;;;;;;;;;10473043;28;20017;-89
2023/09/23 10:59:02;;;;;;;6.53;3.72;;;;;;;;;;10483720;28;20032;-88
2023/09/23 11:04:04;;;;;;;6.97;4.88;;;;;;;;;;10463759;28;20145;-87
2023/09/23 11:09:08;;;;;;;8.48;5.53;;;;;;;;;;10465221;28;20040;-87
2023/09/23 11:14:13;;;;;;;9.32;6.38;;;;;;;;;;10460389;28;20025;-85
2023/09/23 11:19:17;;;;;;;11.67;6.87;;;;;;;;;;10463940;28;20020;-86
2023/09/23 11:24:18;;;;;;;6.65;4.85;;;;;;;;;;10482422;28;20039;-88
2023/09/23 11:29:19;;;;;;;8.13;5.07;;;;;;;;;;10464374;28;20040;-87
2023/09/23 11:34:20;;;;;;;9.15;5.80;;;;;;;;;;10482194;28;20388;-86
2023/09/23 11:39:21;;;;;;;9.05;5.90;;;;;;;;;;10470378;28;20043;-87
2023/09/23 11:44:22;;;;;;;11.30;6.45;;;;;;;;;;10490219;28;20037;-88
2023/09/23 11:49:26;;;;;;;9.45;6.28;;;;;;;;;;10472469;28;20064;-86
2023/09/23 11:54:27;;;;;;;5.95;4.60;;;;;;;;;;10489463;28;20097;-87
2023/09/23 11:59:28;;;;;;;7.00;5.18;;;;;;;;;;10470934;28;20037;-85
2023/09/23 12:04:29;;;;;;;6.20;4.30;;;;;;;;;;10479245;28;20649;-86
2023/09/23 12:09:34;;;;;;;5.85;4.35;;;;;;;;;;10488349;28;20040;-83
2023/09/23 12:14:36;;;;;;;7.47;5.38;;;;;;;;;;10490410;28;20033;-87
2023/09/23 12:19:37;;;;;;;7.97;5.32;;;;;;;;;;10469312;28;20665;-85
2023/09/23 12:24:38;;;;;;;8.20;5.55;;;;;;;;;;10487999;28;20029;-85
2023/09/23 12:29:39;;;;;;;9.98;5.32;;;;;;;;;;10485696;28;20048;-85
2023/09/23 12:34:40;;;;;;;9.88;5.90;;;;;;;;;;10479563;28;20094;-87
2023/09/23 12:39:41;;;;;;;9.45;5.95;;;;;;;;;;10487310;28;20037;-86
2023/09/23 12:44:43;;;;;;;9.70;6.07;;;;;;;;;;10483214;28;20471;-87
2023/09/23 12:49:45;;;;;;;10.80;6.60;;;;;;;;;;10477201;28;20055;-87
2023/09/23 12:54:47;;;;;;;8.43;6.28;;;;;;;;;;10485541;28;20044;-87
2023/09/23 12:59:47;;;;;;;11.02;6.85;;;;;;;;;;10468592;28;20029;-86
2023/09/23 13:04:49;;;;;;;10.75;7.15;;;;;;;;;;10487560;28;20123;-86
2023/09/23 13:09:50;;;;;;;11.73;7.13;;;;;;;;;;10479985;28;20041;-88
2023/09/23 13:14:52;;;;;;;11.35;7.50;;;;;;;;;;10487113;28;20028;-86
2023/09/23 13:19:53;;;;;;;11.43;7.38;;;;;;;;;;10468354;28;20531;-87
2023/09/23 13:24:54;;;;;;;7.80;5.40;;;;;;;;;;10486123;28;20048;-87
2023/09/23 13:29:55;;;;;;;11.55;7.63;;;;;;;;;;10487073;28;20165;-87
2023/09/23 13:34:56;;;;;;;7.93;6.10;;;;;;;;;;10488212;28;20047;-85
2023/09/23 13:39:58;;;;;;;8.15;5.97;;;;;;;;;;10486349;28;20403;-86
2023/09/23 13:44:59;;;;;;;8.02;6.05;;;;;;;;;;10486792;28;20031;-87
2023/09/23 13:50:01;;;;;;;10.00;6.57;;;;;;;;;;10485381;28;20109;-86
2023/09/23 13:55:02;;;;;;;12.02;7.55;;;;;;;;;;10478468;28;20383;-88
2023/09/23 14:00:05;;;;;;;12.35;7.35;;;;;;;;;;10474570;28;20047;-88
2023/09/23 14:05:07;;;;;;;14.55;7.72;;;;;;;;;;10473070;28;20040;-87
2023/09/23 14:15:49;;;;;;;12.00;6.35;;;;;;;;;;10482211;28;20036;-87
2023/09/23 14:20:51;;;;;;;17.30;8.07;;;;;;;;;;10480064;28;20043;-85
2023/09/23 14:31:31;;;;;;;14.10;8.50;;;;;;;;;;10492662;28;20020;-87
2023/09/23 14:36:32;;;;;;;14.45;9.10;;;;;;;;;;10462615;28;20029;-87
2023/09/23 14:41:34;;;;;;;15.98;9.20;;;;;;;;;;10496003;28;20024;-87
2023/09/23 14:47:01;;;;;;;17.00;9.00;;;;;;;;;;10494675;28;20064;-85
2023/09/23 14:52:02;;;;;;;15.82;9.48;;;;;;;;;;10476878;28;20032;-84
2023/09/23 14:57:03;;;;;;;19.35;10.82;;;;;;;;;;10468102;28;20040;-87
2023/09/23 15:02:06;;;;;;;24.17;12.43;;;;;;;;;;10484015;28;20678;-86
2023/09/23 15:07:09;;;;;;;23.30;11.77;;;;;;;;;;10483240;28;20086;-86
2023/09/23 15:12:10;;;;;;;20.58;11.32;;;;;;;;;;10481149;28;20032;-85
2023/09/23 15:17:12;;;;;;;24.88;12.60;;;;;;;;;;10491328;28;20037;-86
2023/09/23 15:22:14;;;;;;;29.85;14.38;;;;;;;;;;10474199;28;20043;-86
2023/09/23 15:27:15;;;;;;;19.60;11.05;;;;;;;;;;10492263;28;20691;-86
2023/09/23 15:32:16;;;;;;;24.98;12.05;;;;;;;;;;10491034;28;20035;-86
2023/09/23 15:37:17;;;;;;;20.95;12.77;;;;;;;;;;10490784;28;20036;-86
2023/09/23 15:42:18;;;;;;;16.83;10.57;;;;;;;;;;10485885;28;20765;-88
2023/09/23 15:47:20;;;;;;;26.05;12.65;;;;;;;;;;10470005;28;20155;-86
2023/09/23 15:52:21;;;;;;;23.35;11.70;;;;;;;;;;10484554;28;20102;-86
2023/09/23 15:57:22;;;;;;;19.20;12.13;;;;;;;;;;10468694;28;20072;-85
2023/09/23 16:02:23;;;;;;;19.25;10.23;;;;;;;;;;10490365;28;20056;-86
2023/09/23 16:07:24;;;;;;;16.60;9.65;;;;;;;;;;10490254;28;20156;-86
2023/09/23 16:12:25;;;;;;;10.88;8.00;;;;;;;;;;10490169;28;20031;-87
2023/09/23 16:17:26;;;;;;;27.10;11.45;;;;;;;;;;10490690;28;20039;-87
2023/09/23 16:22:27;;;;;;;13.90;9.18;;;;;;;;;;10489520;28;20021;-85
2023/09/23 16:27:28;;;;;;;21.67;10.10;;;;;;;;;;10488271;28;20044;-86
2023/09/23 16:32:29;;;;;;;15.75;8.85;;;;;;;;;;10470037;28;20476;-86
2023/09/23 16:37:33;;;;;;;25.38;11.48;;;;;;;;;;10486494;28;20047;-85
2023/09/23 16:42:34;;;;;;;22.15;12.60;;;;;;;;;;10487133;28;20665;-86
2023/09/23 16:47:35;;;;;;;30.35;15.27;;;;;;;;;;10488730;28;20081;-86
2023/09/23 16:52:36;;;;;;;17.45;10.68;;;;;;;;;;10489099;28;20024;-85
2023/09/23 16:57:37;;;;;;;26.15;15.80;;;;;;;;;;10487342;28;20054;-85
2023/09/23 17:02:39;;;;;;;25.80;15.43;;;;;;;;;;10486451;28;20052;-85
2023/09/23 17:07:40;;;;;;;16.17;10.73;;;;;;;;;;10472144;28;20437;-87
2023/09/23 17:12:50;;;;;;;35.20;16.13;;;;;;;;;;10487456;28;20021;-86
2023/09/23 17:17:51;;;;;;;21.05;12.63;;;;;;;;;;10470036;28;20059;-87
2023/09/23 17:22:52;;;;;;;22.48;12.70;;;;;;;;;;10469404;28;20036;-85
2023/09/23 17:27:54;;;;;;;35.80;16.00;;;;;;;;;;10488011;28;20676;-85
2023/09/23 17:32:54;;;;;;;41.08;18.92;;;;;;;;;;10487198;28;20024;-85
2023/09/23 17:37:56;;;;;;;15.18;9.75;;;;;;;;;;10468116;28;20036;-85
2023/09/23 17:42:57;;;;;;;42.63;21.00;;;;;;;;;;10467677;28;20077;-86
2023/09/23 17:47:58;;;;;;;40.08;20.38;;;;;;;;;;10487528;28;20033;-86
2023/09/23 17:52:59;;;;;;;40.85;20.75;;;;;;;;;;10487334;28;20435;-86
2023/09/23 17:58:00;;;;;;;33.70;15.80;;;;;;;;;;10461814;28;20123;-85
2023/09/23 18:03:02;;;;;;;60.90;24.77;;;;;;;;;;10482053;28;20044;-86
2023/09/23 18:08:03;;;;;;;64.25;25.70;;;;;;;;;;10468162;28;20067;-87
2023/09/23 18:13:04;;;;;;;30.35;17.48;;;;;;;;;;10486534;28;20540;-85
2023/09/23 18:18:05;;;;;;;30.20;15.45;;;;;;;;;;10485772;28;20468;-86
2023/09/23 18:23:07;;;;;;;43.47;21.05;;;;;;;;;;10467246;28;20456;-87
2023/09/23 18:28:08;;;;;;;64.72;24.13;;;;;;;;;;10485451;28;20044;-87
2023/09/23 18:33:09;;;;;;;75.75;35.80;;;;;;;;;;10485006;28;20046;-87
2023/09/23 18:38:10;;;;;;;106.65;42.10;;;;;;;;;;10485674;28;20040;-86
2023/09/23 18:43:11;;;;;;;76.10;36.28;;;;;;;;;;10485647;28;20086;-85
2023/09/23 18:48:12;;;;;;;41.35;20.80;;;;;;;;;;10484904;28;20075;-87
2023/09/23 18:53:13;;;;;;;45.58;25.02;;;;;;;;;;10485516;28;20040;-86
2023/09/23 18:58:14;;;;;;;27.48;16.38;;;;;;;;;;10485256;28;20461;-85
2023/09/23 19:03:16;;;;;;;49.50;23.33;;;;;;;;;;10484605;28;20064;-86
2023/09/23 19:08:17;;;;;;;39.63;22.25;;;;;;;;;;10485071;28;20658;-87
2023/09/23 19:13:18;;;;;;;35.97;21.45;;;;;;;;;;10484611;28;20038;-86
2023/09/23 19:18:19;;;;;;;37.38;22.70;;;;;;;;;;10466839;28;20028;-86
2023/09/23 19:23:21;;;;;;;54.25;28.15;;;;;;;;;;10484393;28;20850;-86
2023/09/23 19:28:24;;;;;;;52.08;27.15;;;;;;;;;;10484038;28;20037;-86
2023/09/23 19:33:25;;;;;;;47.00;27.42;;;;;;;;;;10484758;28;20115;-85
2023/09/23 19:38:28;;;;;;;44.42;24.10;;;;;;;;;;10484255;28;20033;-85
2023/09/23 19:43:31;;;;;;;22.48;14.23;;;;;;;;;;10466132;28;20028;-85
2023/09/23 19:48:33;;;;;;;64.85;31.80;;;;;;;;;;10483518;28;20530;-85
2023/09/23 19:53:34;;;;;;;66.50;30.02;;;;;;;;;;10465619;28;20876;-86
2023/09/23 19:58:35;;;;;;;51.70;28.52;;;;;;;;;;10487128;28;20391;-87
2023/09/23 20:03:36;;;;;;;52.97;30.83;;;;;;;;;;10491003;28;20049;-85
2023/09/23 20:08:38;;;;;;;55.35;31.63;;;;;;;;;;10491330;28;20040;-84
2023/09/23 20:13:39;;;;;;;67.15;31.02;;;;;;;;;;10490972;28;20021;-85
2023/09/23 20:18:40;;;;;;;47.40;26.60;;;;;;;;;;10490478;28;20103;-84
2023/09/23 20:23:43;;;;;;;40.28;23.70;;;;;;;;;;10490263;28;20024;-87
2023/09/23 20:28:44;;;;;;;28.23;17.20;;;;;;;;;;10490692;28;20032;-86
2023/09/23 20:33:45;;;;;;;36.03;20.35;;;;;;;;;;10490040;28;20021;-84
2023/09/23 20:38:46;;;;;;;26.27;15.55;;;;;;;;;;10490529;28;20076;-86
2023/09/23 20:43:49;;;;;;;22.27;13.48;;;;;;;;;;10490654;28;20028;-85
2023/09/23 20:48:51;;;;;;;23.77;15.65;;;;;;;;;;10489932;28;20089;-85
2023/09/23 20:53:52;;;;;;;22.00;14.77;;;;;;;;;;10490622;28;20028;-84
2023/09/23 20:58:53;;;;;;;19.80;12.70;;;;;;;;;;10483529;28;20405;-86
2023/09/23 21:03:53;;;;;;;21.92;12.65;;;;;;;;;;10482651;28;20056;-85
2023/09/23 21:08:55;;;;;;;23.50;13.25;;;;;;;;;;10488338;28;20024;-85
2023/09/23 21:13:58;;;;;;;18.15;12.38;;;;;;;;;;10488357;28;20024;-85
2023/09/23 21:18:59;;;;;;;18.75;13.30;;;;;;;;;;10470540;28;20067;-86
2023/09/23 21:24:01;;;;;;;20.38;11.13;;;;;;;;;;10487661;28;20036;-85
2023/09/23 21:29:02;;;;;;;17.08;10.65;;;;;;;;;;10485095;28;20079;-88
2023/09/23 21:34:03;;;;;;;14.85;10.77;;;;;;;;;;10472811;28;20032;-87
2023/09/23 21:39:05;;;;;;;15.25;9.73;;;;;;;;;;10487059;28;20120;-89
2023/09/23 21:44:06;;;;;;;13.45;8.23;;;;;;;;;;10486940;28;20029;-85
2023/09/23 21:49:08;;;;;;;13.02;8.65;;;;;;;;;;10484514;28;20557;-85
2023/09/23 21:54:12;;;;;;;11.40;8.52;;;;;;;;;;10485582;28;20156;-85
2023/09/23 21:59:13;;;;;;;16.45;9.68;;;;;;;;;;10469253;28;20677;-86
2023/09/23 22:04:14;;;;;;;13.20;9.45;;;;;;;;;;10469021;28;20059;-84
2023/09/23 22:09:17;;;;;;;16.70;11.00;;;;;;;;;;10483734;28;20032;-86
2023/09/23 22:14:18;;;;;;;14.57;10.10;;;;;;;;;;10485806;28;20039;-86
2023/09/23 22:19:19;;;;;;;15.73;10.70;;;;;;;;;;10487140;28;20127;-85
2023/09/23 22:24:21;;;;;;;13.27;8.68;;;;;;;;;;10484211;28;20655;-85
2023/09/23 22:29:22;;;;;;;12.95;8.90;;;;;;;;;;10489907;28;20033;-86
2023/09/23 22:34:24;;;;;;;14.10;8.77;;;;;;;;;;10486168;28;20036;-85
2023/09/23 22:39:25;;;;;;;11.82;7.50;;;;;;;;;;10485119;28;20036;-87
2023/09/23 22:44:26;;;;;;;10.77;7.93;;;;;;;;;;10465871;28;20032;-86
2023/09/23 22:49:27;;;;;;;10.77;7.20;;;;;;;;;;10482746;28;20434;-86
2023/09/23 22:54:31;;;;;;;8.75;5.75;;;;;;;;;;10484132;28;20028;-86
2023/09/23 22:59:32;;;;;;;9.73;6.80;;;;;;;;;;10487975;28;20033;-85
2023/09/23 23:04:34;;;;;;;9.82;7.32;;;;;;;;;;10490189;28;20470;-85
2023/09/23 23:09:35;;;;;;;12.52;8.10;;;;;;;;;;10497828;28;20040;-84
2023/09/23 23:14:36;;;;;;;7.10;5.75;;;;;;;;;;10484149;28;20489;-83
2023/09/23 23:19:37;;;;;;;8.00;6.00;;;;;;;;;;10484856;28;20086;-84
2023/09/23 23:24:38;;;;;;;8.25;4.75;;;;;;;;;;10484614;28;20020;-85
2023/09/23 23:29:39;;;;;;;11.32;5.15;;;;;;;;;;10484669;28;20037;-85
2023/09/23 23:34:40;;;;;;;6.30;4.93;;;;;;;;;;10488577;28;20107;-85
2023/09/23 23:39:43;;;;;;;6.95;4.55;;;;;;;;;;10500024;28;20032;-86
2023/09/23 23:44:52;;;;;;;5.25;4.18;;;;;;;;;;10494916;28;20048;-85
2023/09/23 23:49:54;;;;;;;6.80;4.28;;;;;;;;;;10485726;28;20527;-84
2023/09/23 23:54:55;;;;;;;6.82;4.55;;;;;;;;;;10476798;28;20040;-84
2023/09/23 23:59:56;;;;;;;7.00;5.40;;;;;;;;;;10473846;28;20029;-83
